Indianapolis, Indiana
Traffic Map
Current Weather Conditions
Indianapolis, Indiana
Overcast
Overcast
20°
Feels Like: 6°
Wind Chill: Ceiling: 2600
Heat Index: 20° Visibility: 10mi
Dew Point: 16° Wind: 16mph
Humidity: 85% Direction: 10° (N)
Pressure: 29.89in Gusts: 23mph
Raw Report DataKIND 260826Z 01014G20KT 10SM FEW018 BKN026 OVC032 M07/M09 A2989 RMK AO2 T10671089
Traffic Incident Summary
Active as of:
Severity:
Category:
InformationThere was an issue retrieving the traffic information for this location. Please try a different location or try again shortly.
Advertisements
Track Severe Weather on mobile